XA43 weather

Fall Creek Ranch Airport
Kerrville, Texas, United States

Public forecast

Using degrees Fahrenheit for public forecast. Weather courtesy of forecast.io.

Closest aviation weather report (METAR) to Fall Creek Ranch Airport

Closest report is Kerrville Municipal Louis Schreiner Field, 7.5 nm (13.9 km) ENE. Retrieved 2019/10/23 22:35 UTC (0 seconds ago):

KERV 232235Z AUTO 16012G19KT 10SM CLR 28/10 A2994 RMK AO2 T02750096

Closest aviation forecast (TAF) to Fall Creek Ranch Airport

Closest forecast is San Antonio International Airport, 44.5 nm (82.5 km) ESE. Retrieved 2019/10/23 18:22 UTC (4 hours ago):

TAF KSAT 231720Z 2318/2424 16013G22KT P6SM FEW050 FM240000 15012KT P6SM FEW050 FM240700 13006KT P6SM SCT008 OVC012 FM241800 14009KT P6SM VCSH BKN025 FM242200 13010KT P6SM VCTS BKN030CB